ABV751 EGJB-EGNX
Flight info
| Callsign | ABV751 |
|---|---|
| Flight time | N/A |
| Altitude | 15000 |
| Route | ORIST Y110 THRED/N0272F170 Z171 SAM Q41 SILVA/N0270F180 M605 DTY |
| Aircraft | AT75/M-SDFGIRY/S |
Departure
| Time | 2026-04-25 19:38 |
|---|---|
| Airport | Guernsey Airport (EGJB) |
Arrival
| Time | N/A |
|---|---|
| Airport | East Midlands Airport (EGNX) |
| Time | Latitude | Longitude | Altitude | Speed | Heading |
|---|---|---|---|---|---|
| 2026-04-25 19:15 | 49.43287 | -2.59748 | 341 ft | 0 kts | 179° |
| 2026-04-25 19:30 | 49.43293 | -2.59749 | 341 ft | 2 kts | 178° |
| 2026-04-25 19:30 | 49.43307 | -2.59749 | 339 ft | 3 kts | 176° |
| 2026-04-25 19:31 | 49.43331 | -2.59751 | 341 ft | 3 kts | 188° |
| 2026-04-25 19:31 | 49.43348 | -2.59742 | 336 ft | 3 kts | 224° |
| 2026-04-25 19:31 | 49.43359 | -2.59721 | 339 ft | 2 kts | 253° |
| 2026-04-25 19:31 | 49.43361 | -2.59710 | 340 ft | 0 kts | 255° |
| 2026-04-25 19:33 | 49.43360 | -2.59717 | 339 ft | 3 kts | 255° |
| 2026-04-25 19:33 | 49.43359 | -2.59721 | 339 ft | 0 kts | 255° |
| 2026-04-25 19:34 | 49.43357 | -2.59733 | 336 ft | 5 kts | 254° |
| 2026-04-25 19:34 | 49.43346 | -2.59824 | 341 ft | 11 kts | 267° |
| 2026-04-25 19:35 | 49.43343 | -2.59956 | 341 ft | 13 kts | 268° |
| 2026-04-25 19:35 | 49.43339 | -2.60101 | 339 ft | 14 kts | 268° |
| 2026-04-25 19:35 | 49.43334 | -2.60254 | 335 ft | 16 kts | 267° |
| 2026-04-25 19:35 | 49.43330 | -2.60389 | 332 ft | 13 kts | 268° |
| 2026-04-25 19:36 | 49.43327 | -2.60541 | 328 ft | 15 kts | 267° |
| 2026-04-25 19:36 | 49.43339 | -2.60705 | 322 ft | 14 kts | 278° |
| 2026-04-25 19:36 | 49.43358 | -2.60871 | 320 ft | 17 kts | 279° |
| 2026-04-25 19:36 | 49.43363 | -2.61020 | 317 ft | 11 kts | 268° |
| 2026-04-25 19:37 | 49.43362 | -2.61088 | 315 ft | 6 kts | 268° |
| 2026-04-25 19:37 | 49.43359 | -2.61193 | 313 ft | 13 kts | 268° |
| 2026-04-25 19:37 | 49.43399 | -2.61320 | 310 ft | 12 kts | 312° |
| 2026-04-25 19:37 | 49.43462 | -2.61328 | 310 ft | 8 kts | 58° |
| 2026-04-25 19:38 | 49.43467 | -2.61283 | 311 ft | 18 kts | 87° |
| 2026-04-25 19:38 | 49.43485 | -2.60633 | 326 ft | 100 kts | 88° |
| 2026-04-25 19:38 | 49.43520 | -2.59493 | 897 ft | 110 kts | 86° |
| 2026-04-25 19:38 | 49.43591 | -2.58216 | 1458 ft | 129 kts | 84° |
| 2026-04-25 19:39 | 49.43646 | -2.56826 | 2016 ft | 138 kts | 87° |
| 2026-04-25 19:39 | 49.43681 | -2.55167 | 2081 ft | 172 kts | 88° |
| 2026-04-25 19:39 | 49.43718 | -2.53227 | 2433 ft | 183 kts | 88° |
| 2026-04-25 19:39 | 49.43739 | -2.51302 | 3087 ft | 179 kts | 87° |
| 2026-04-25 19:40 | 49.44141 | -2.49551 | 3626 ft | 177 kts | 44° |
| 2026-04-25 19:40 | 49.45202 | -2.48624 | 4109 ft | 178 kts | 22° |
| 2026-04-25 19:40 | 49.46374 | -2.47985 | 4674 ft | 180 kts | 16° |
| 2026-04-25 19:40 | 49.47586 | -2.47469 | 5234 ft | 181 kts | 13° |
| 2026-04-25 19:41 | 49.48805 | -2.47037 | 5753 ft | 183 kts | 12° |
| 2026-04-25 19:41 | 49.50077 | -2.46621 | 6288 ft | 186 kts | 12° |
| 2026-04-25 19:41 | 49.51346 | -2.46200 | 6775 ft | 187 kts | 13° |
| 2026-04-25 19:41 | 49.52190 | -2.45902 | 7102 ft | 189 kts | 13° |
| 2026-04-25 19:42 | 49.53906 | -2.45265 | 7751 ft | 191 kts | 14° |
| 2026-04-25 19:42 | 49.55199 | -2.44778 | 8219 ft | 192 kts | 14° |
| 2026-04-25 19:42 | 49.56505 | -2.44283 | 8698 ft | 194 kts | 14° |
| 2026-04-25 19:42 | 49.57821 | -2.43780 | 9172 ft | 196 kts | 14° |
| 2026-04-25 19:43 | 49.59144 | -2.43274 | 9631 ft | 197 kts | 14° |
| 2026-04-25 19:43 | 49.60483 | -2.42763 | 10091 ft | 199 kts | 14° |
| 2026-04-25 19:43 | 49.61778 | -2.42133 | 10444 ft | 199 kts | 32° |
| 2026-04-25 19:43 | 49.62738 | -2.40561 | 10819 ft | 201 kts | 52° |
| 2026-04-25 19:44 | 49.63604 | -2.38861 | 11224 ft | 203 kts | 51° |
| 2026-04-25 19:44 | 49.64508 | -2.37178 | 11627 ft | 204 kts | 48° |
| 2026-04-25 19:44 | 49.65478 | -2.35562 | 12024 ft | 205 kts | 45° |
| 2026-04-25 19:44 | 49.66502 | -2.34018 | 12411 ft | 207 kts | 42° |
| 2026-04-25 19:45 | 49.67569 | -2.32476 | 12822 ft | 208 kts | 42° |
| 2026-04-25 19:45 | 49.68624 | -2.30979 | 13193 ft | 209 kts | 40° |
| 2026-04-25 19:45 | 49.69688 | -2.29468 | 13576 ft | 211 kts | 41° |
| 2026-04-25 19:45 | 49.70760 | -2.27917 | 13945 ft | 212 kts | 42° |
| 2026-04-25 19:46 | 49.71834 | -2.26343 | 14277 ft | 213 kts | 41° |
| 2026-04-25 19:46 | 49.72910 | -2.24757 | 14598 ft | 215 kts | 41° |
| 2026-04-25 19:46 | 49.73998 | -2.23157 | 14888 ft | 216 kts | 41° |
| 2026-04-25 19:46 | 49.75098 | -2.21537 | 15060 ft | 223 kts | 41° |
| 2026-04-25 19:47 | 49.76250 | -2.19841 | 15126 ft | 234 kts | 41° |
| 2026-04-25 19:47 | 49.77450 | -2.18068 | 15157 ft | 243 kts | 41° |
| 2026-04-25 19:47 | 49.78692 | -2.16237 | 15176 ft | 250 kts | 41° |
| 2026-04-25 19:47 | 49.79964 | -2.14360 | 15178 ft | 255 kts | 41° |
| 2026-04-25 19:48 | 49.81259 | -2.12450 | 15185 ft | 259 kts | 42° |
| 2026-04-25 19:48 | 49.82570 | -2.10506 | 15188 ft | 262 kts | 42° |
| 2026-04-25 19:48 | 49.83890 | -2.08547 | 15191 ft | 264 kts | 42° |
| 2026-04-25 19:48 | 49.85218 | -2.06579 | 15194 ft | 265 kts | 42° |
| 2026-04-25 19:49 | 49.86556 | -2.04600 | 15197 ft | 266 kts | 42° |
| 2026-04-25 19:49 | 49.87440 | -2.03288 | 15198 ft | 266 kts | 42° |
| 2026-04-25 19:49 | 49.89232 | -2.00627 | 15202 ft | 267 kts | 42° |
| 2026-04-25 19:49 | 49.90573 | -1.98633 | 15205 ft | 267 kts | 42° |
| 2026-04-25 19:50 | 49.93254 | -1.94641 | 15211 ft | 268 kts | 42° |
| 2026-04-25 19:50 | 49.94597 | -1.92639 | 15215 ft | 268 kts | 42° |
| 2026-04-25 19:50 | 49.95939 | -1.90642 | 15218 ft | 267 kts | 42° |
| 2026-04-25 19:51 | 49.97283 | -1.88640 | 15220 ft | 268 kts | 42° |
| 2026-04-25 19:51 | 49.98625 | -1.86637 | 15226 ft | 268 kts | 42° |
| 2026-04-25 19:51 | 50.00065 | -1.84864 | 15221 ft | 263 kts | 23° |
| 2026-04-25 19:51 | 50.01803 | -1.84107 | 15224 ft | 259 kts | 7° |
| 2026-04-25 19:52 | 50.03602 | -1.83847 | 15152 ft | 261 kts | 1° |
| 2026-04-25 19:52 | 50.05416 | -1.83718 | 15080 ft | 263 kts | 0° |
| 2026-04-25 19:52 | 50.07234 | -1.83566 | 15161 ft | 260 kts | 2° |
| 2026-04-25 19:52 | 50.09031 | -1.83338 | 15195 ft | 260 kts | 4° |
| 2026-04-25 19:53 | 50.10809 | -1.83095 | 15213 ft | 260 kts | 3° |
| 2026-04-25 19:53 | 50.12614 | -1.82854 | 15207 ft | 261 kts | 3° |
| 2026-04-25 19:53 | 50.14527 | -1.82735 | 13925 ft | 296 kts | 357° |